createdAt,value
2023-03-06T00:03:15.049Z,94227.00
2023-03-06T00:07:15.233Z,94225.00
2023-03-06T00:11:15.411Z,94225.00
2023-03-06T00:15:15.577Z,94227.00
2023-03-06T00:19:15.801Z,94225.00
2023-03-06T00:23:16.007Z,94221.00
2023-03-06T00:27:16.174Z,94219.00
2023-03-06T00:31:16.365Z,94219.00
2023-03-06T00:35:16.556Z,94215.00
2023-03-06T00:39:18.720Z,94213.00
2023-03-06T00:43:17.005Z,94209.00
2023-03-06T00:47:17.004Z,94205.00
2023-03-06T00:51:16.917Z,94201.00
2023-03-06T00:55:17.250Z,94197.00
2023-03-06T00:59:16.847Z,94194.00
2023-03-06T01:03:16.787Z,94194.00
2023-03-06T01:07:16.819Z,94188.00
2023-03-06T01:11:16.729Z,94184.00
2023-03-06T01:15:16.690Z,94174.00
2023-03-06T01:19:16.670Z,94166.00
2023-03-06T01:23:16.641Z,94160.00
2023-03-06T01:27:16.623Z,94158.00
2023-03-06T01:31:16.640Z,94154.00
2023-03-06T01:35:16.528Z,94152.00
2023-03-06T01:39:16.502Z,94148.00
2023-03-06T01:43:16.474Z,94141.00
2023-03-06T01:47:16.443Z,94141.00
2023-03-06T01:51:16.408Z,94129.00
2023-03-06T01:55:16.353Z,94119.00
2023-03-06T01:59:16.309Z,94115.00
2023-03-06T02:03:16.487Z,94109.00
2023-03-06T02:07:16.441Z,94103.00
2023-03-06T02:11:16.480Z,94100.00
2023-03-06T02:15:16.358Z,94094.00
2023-03-06T02:19:16.408Z,94096.00
2023-03-06T02:23:16.297Z,94086.00
2023-03-06T02:27:16.265Z,94086.00
2023-03-06T02:31:16.238Z,94078.00
2023-03-06T02:35:16.198Z,94078.00
2023-03-06T02:39:16.145Z,94074.00
2023-03-06T02:43:16.187Z,94066.00
2023-03-06T02:47:16.370Z,94062.00
2023-03-06T02:51:16.519Z,94054.00
2023-03-06T02:55:16.748Z,94052.00
2023-03-06T02:59:17.044Z,94045.00
2023-03-06T03:03:17.128Z,94039.00
2023-03-06T03:07:17.342Z,94035.00
2023-03-06T03:11:17.304Z,94031.00
2023-03-06T03:15:17.292Z,94029.00
2023-03-06T03:19:17.250Z,94025.00
2023-03-06T03:23:17.242Z,94019.00
2023-03-06T03:27:17.168Z,94019.00
2023-03-06T03:31:17.290Z,94011.00
2023-03-06T03:35:17.083Z,94005.00
2023-03-06T03:39:17.068Z,94003.00
2023-03-06T03:43:17.006Z,93992.00
2023-03-06T03:47:16.980Z,93986.00
2023-03-06T03:51:16.946Z,93982.00
2023-03-06T03:55:16.921Z,93976.00
2023-03-06T03:59:16.850Z,93972.00
2023-03-06T04:03:16.825Z,93966.00
2023-03-06T04:07:16.781Z,93961.00
2023-03-06T04:11:16.729Z,93959.00
2023-03-06T04:15:16.733Z,93951.00
2023-03-06T04:19:16.677Z,93951.00
2023-03-06T04:23:16.711Z,93945.00
2023-03-06T04:27:16.731Z,93937.00
2023-03-06T04:31:16.795Z,93943.00
2023-03-06T04:35:16.879Z,93933.00
2023-03-06T04:39:16.970Z,93927.00
2023-03-06T04:43:16.935Z,93927.00
2023-03-06T04:47:19.029Z,93931.00
2023-03-06T04:51:17.017Z,93929.00
2023-03-06T04:55:17.063Z,93925.00
2023-03-06T04:59:17.049Z,93923.00
2023-03-06T05:03:17.028Z,93921.00
2023-03-06T05:07:16.997Z,93915.00
2023-03-06T05:11:17.026Z,93913.00
2023-03-06T05:15:16.981Z,93909.00
2023-03-06T05:19:17.004Z,93906.00
2023-03-06T05:23:16.980Z,93900.00
2023-03-06T05:27:17.050Z,93902.00
2023-03-06T05:31:17.061Z,93902.00
2023-03-06T05:35:16.890Z,93904.00
2023-03-06T05:39:16.874Z,93902.00
2023-03-06T05:43:16.853Z,93907.00
2023-03-06T05:47:16.823Z,93904.00
2023-03-06T05:51:16.844Z,93906.00
2023-03-06T05:55:16.861Z,93907.00
2023-03-06T05:59:16.810Z,93909.00
2023-03-06T06:03:16.804Z,93909.00
2023-03-06T06:07:16.753Z,93911.00
2023-03-06T06:11:16.758Z,93907.00
2023-03-06T06:15:16.743Z,93915.00
2023-03-06T06:19:17.384Z,93917.00
2023-03-06T06:23:16.674Z,93915.00
2023-03-06T06:27:16.653Z,93919.00
2023-03-06T06:31:16.676Z,93919.00
2023-03-06T06:35:16.625Z,93915.00
2023-03-06T06:39:16.668Z,93917.00
2023-03-06T06:43:16.908Z,93915.00
2023-03-06T06:47:25.665Z,93915.00
2023-03-06T06:51:17.872Z,93913.00
2023-03-06T06:55:16.782Z,93921.00
2023-03-06T06:59:17.682Z,93919.00
2023-03-06T07:03:17.394Z,93923.00
2023-03-06T07:07:17.202Z,93923.00
2023-03-06T07:11:17.404Z,93919.00
2023-03-06T07:15:17.224Z,93925.00
2023-03-06T07:19:17.408Z,93921.00
2023-03-06T07:23:17.353Z,93923.00
2023-03-06T07:27:17.305Z,93927.00
2023-03-06T07:31:17.463Z,93929.00
2023-03-06T07:35:20.387Z,93929.00
2023-03-06T07:39:17.203Z,93937.00
2023-03-06T07:43:19.569Z,93943.00
2023-03-06T07:47:17.408Z,93941.00
2023-03-06T07:51:17.453Z,93941.00
2023-03-06T07:55:17.446Z,93943.00
2023-03-06T07:59:17.076Z,93945.00
2023-03-06T08:03:17.077Z,93943.00
2023-03-06T08:07:16.950Z,93951.00
2023-03-06T08:11:16.926Z,93947.00
2023-03-06T08:15:16.874Z,93945.00
2023-03-06T08:19:16.839Z,93941.00
2023-03-06T08:23:16.953Z,93945.00
2023-03-06T08:27:16.746Z,93937.00
2023-03-06T08:31:16.798Z,93939.00
2023-03-06T08:35:16.735Z,93943.00
2023-03-06T08:39:16.977Z,93937.00
2023-03-06T08:43:16.768Z,93941.00
2023-03-06T08:47:16.943Z,93945.00
2023-03-06T08:51:17.436Z,93943.00
2023-03-06T08:55:17.458Z,93945.00
2023-03-06T08:59:16.989Z,93943.00
2023-03-06T09:03:16.926Z,93947.00
2023-03-06T09:07:16.891Z,93943.00
2023-03-06T09:11:16.884Z,93945.00
2023-03-06T09:15:16.922Z,93937.00
2023-03-06T09:19:16.783Z,93937.00
2023-03-06T09:23:16.750Z,93931.00
2023-03-06T09:27:16.714Z,93935.00
2023-03-06T09:31:16.856Z,93929.00
2023-03-06T09:35:16.647Z,93935.00
2023-03-06T09:39:16.969Z,93929.00
2023-03-06T09:43:16.987Z,93929.00
2023-03-06T09:47:16.981Z,93919.00
2023-03-06T09:51:16.695Z,93921.00
2023-03-06T09:55:16.958Z,93919.00
2023-03-06T09:59:17.484Z,93915.00
2023-03-06T10:03:17.498Z,93921.00
2023-03-06T10:07:17.471Z,93911.00
2023-03-06T10:11:17.298Z,93902.00
2023-03-06T10:15:17.323Z,93906.00
2023-03-06T10:19:17.470Z,93904.00
2023-03-06T10:23:17.498Z,93896.00
2023-03-06T10:27:17.654Z,93892.00
2023-03-06T10:31:18.582Z,93884.00
2023-03-06T10:35:18.039Z,93874.00
2023-03-06T10:39:18.493Z,93867.00
2023-03-06T10:43:18.259Z,93853.00
2023-03-06T10:47:18.596Z,93853.00
2023-03-06T10:51:19.310Z,93835.00
2023-03-06T10:55:18.990Z,93825.00
2023-03-06T10:59:18.704Z,93819.00
2023-03-06T11:03:19.071Z,93810.00
2023-03-06T11:07:18.986Z,93806.00
2023-03-06T11:11:35.037Z,93800.00
2023-03-06T11:15:19.698Z,93792.00
2023-03-06T11:19:18.635Z,93794.00
2023-03-06T11:23:19.031Z,93772.00
2023-03-06T11:27:19.006Z,93768.00
2023-03-06T11:31:18.579Z,93761.00
2023-03-06T11:35:18.511Z,93747.00
2023-03-06T11:39:18.543Z,93739.00
2023-03-06T11:43:18.539Z,93733.00
2023-03-06T11:47:18.405Z,93733.00
2023-03-06T11:51:18.513Z,93721.00
2023-03-06T11:55:18.337Z,93712.00
2023-03-06T11:59:18.294Z,93710.00
2023-03-06T12:03:18.290Z,93700.00
2023-03-06T12:07:18.234Z,93700.00
2023-03-06T12:15:18.249Z,93692.00
2023-03-06T12:19:18.471Z,93684.00
2023-03-06T12:23:18.581Z,93688.00
2023-03-06T12:27:19.048Z,93688.00
2023-03-06T12:31:19.059Z,93690.00
2023-03-06T12:35:19.113Z,93684.00
2023-03-06T12:39:19.134Z,93676.00
2023-03-06T12:43:19.375Z,93676.00
2023-03-06T12:47:19.593Z,93669.00
2023-03-06T12:51:19.272Z,93659.00
2023-03-06T12:55:22.693Z,93663.00
2023-03-06T12:59:19.227Z,93653.00
2023-03-06T13:03:19.181Z,93655.00
2023-03-06T13:07:19.136Z,93647.00
2023-03-06T13:11:19.266Z,93643.00
2023-03-06T13:15:19.228Z,93639.00
2023-03-06T13:19:19.203Z,93641.00
2023-03-06T13:23:19.598Z,93633.00
2023-03-06T13:27:19.108Z,93637.00
2023-03-06T13:31:27.220Z,93637.00
2023-03-06T13:35:20.106Z,93631.00
2023-03-06T13:39:19.021Z,93631.00
2023-03-06T13:43:19.234Z,93627.00
2023-03-06T13:47:19.414Z,93618.00
2023-03-06T13:51:19.550Z,93618.00
2023-03-06T13:55:19.638Z,93620.00
2023-03-06T13:59:19.657Z,93614.00
2023-03-06T14:03:19.655Z,93616.00
2023-03-06T14:07:19.709Z,93618.00
2023-03-06T14:11:19.822Z,93620.00
2023-03-06T14:15:19.788Z,93618.00
2023-03-06T14:19:19.776Z,93618.00
2023-03-06T14:23:19.684Z,93616.00
2023-03-06T14:27:19.703Z,93616.00
2023-03-06T14:31:19.668Z,93627.00
2023-03-06T14:35:19.677Z,93637.00
2023-03-06T14:39:19.579Z,93639.00
2023-03-06T14:43:19.526Z,93637.00
2023-03-06T14:47:19.496Z,93645.00
2023-03-06T14:51:19.470Z,93635.00
2023-03-06T14:55:19.409Z,93643.00
2023-03-06T14:59:19.386Z,93645.00
2023-03-06T15:03:19.613Z,93641.00
2023-03-06T15:07:19.319Z,93649.00
2023-03-06T15:11:19.254Z,93651.00
2023-03-06T15:15:19.668Z,93655.00
2023-03-06T15:19:19.316Z,93653.00
2023-03-06T15:23:19.720Z,93653.00
2023-03-06T15:27:19.536Z,93659.00
2023-03-06T15:31:19.670Z,93667.00
2023-03-06T15:35:19.775Z,93671.00
2023-03-06T15:39:19.823Z,93669.00
2023-03-06T15:43:19.959Z,93676.00
2023-03-06T15:47:20.041Z,93673.00
2023-03-06T15:51:20.202Z,93671.00
2023-03-06T15:55:20.262Z,93674.00
2023-03-06T15:59:20.363Z,93684.00
2023-03-06T16:03:20.454Z,93684.00
2023-03-06T16:07:20.566Z,93678.00
2023-03-06T16:11:20.633Z,93680.00
2023-03-06T16:15:20.723Z,93682.00
2023-03-06T16:19:27.954Z,93692.00
2023-03-06T16:23:21.835Z,93690.00
2023-03-06T16:27:21.173Z,93694.00
2023-03-06T16:31:20.745Z,93700.00
2023-03-06T16:35:20.725Z,93708.00
2023-03-06T16:39:20.765Z,93706.00
2023-03-06T16:43:20.951Z,93700.00
2023-03-06T16:47:20.985Z,93710.00
2023-03-06T16:51:21.089Z,93712.00
2023-03-06T16:55:21.246Z,93721.00
2023-03-06T16:59:21.398Z,93727.00
2023-03-06T17:03:21.696Z,93727.00
2023-03-06T17:07:21.715Z,93733.00
2023-03-06T17:11:21.832Z,93743.00
2023-03-06T17:15:21.957Z,93743.00
2023-03-06T17:19:22.124Z,93747.00
2023-03-06T17:23:22.229Z,93755.00
2023-03-06T17:27:22.401Z,93759.00
2023-03-06T17:31:22.584Z,93768.00
2023-03-06T17:35:22.749Z,93770.00
2023-03-06T17:39:22.855Z,93778.00
2023-03-06T17:43:22.990Z,93780.00
2023-03-06T17:47:23.172Z,93786.00
2023-03-06T17:51:23.321Z,93792.00
2023-03-06T17:55:23.507Z,93794.00
2023-03-06T17:59:23.661Z,93798.00
2023-03-06T18:03:23.838Z,93798.00
2023-03-06T18:07:24.047Z,93804.00
2023-03-06T18:11:24.242Z,93806.00
2023-03-06T18:15:24.425Z,93810.00
2023-03-06T18:19:24.575Z,93815.00
2023-03-06T18:23:24.795Z,93814.00
2023-03-06T18:27:25.002Z,93814.00
2023-03-06T18:31:25.235Z,93819.00
2023-03-06T18:35:25.438Z,93815.00
2023-03-06T18:39:25.579Z,93825.00
2023-03-06T18:43:25.762Z,93831.00
2023-03-06T18:47:25.992Z,93827.00
2023-03-06T18:51:26.225Z,93833.00
2023-03-06T18:55:26.456Z,93831.00
2023-03-06T18:59:26.643Z,93837.00
2023-03-06T19:03:26.618Z,93839.00
2023-03-06T19:07:26.683Z,93843.00
2023-03-06T19:11:26.537Z,93849.00
2023-03-06T19:15:26.512Z,93857.00
2023-03-06T19:19:26.488Z,93857.00
2023-03-06T19:23:26.436Z,93861.00
2023-03-06T19:27:26.406Z,93861.00
2023-03-06T19:31:26.634Z,93857.00
2023-03-06T19:35:26.390Z,93863.00
2023-03-06T19:39:26.320Z,93867.00
2023-03-06T19:43:26.237Z,93867.00
2023-03-06T19:47:26.233Z,93874.00
2023-03-06T19:51:26.197Z,93876.00
2023-03-06T19:55:26.141Z,93884.00
2023-03-06T19:59:26.127Z,93888.00
2023-03-06T20:03:26.068Z,93888.00
2023-03-06T20:07:26.053Z,93888.00
2023-03-06T20:11:26.091Z,93888.00
2023-03-06T20:15:26.071Z,93888.00
2023-03-06T20:19:26.073Z,93888.00
2023-03-06T20:23:26.055Z,93890.00
2023-03-06T20:27:25.973Z,93898.00
2023-03-06T20:31:26.052Z,93902.00
2023-03-06T20:35:25.893Z,93902.00
2023-03-06T20:39:25.860Z,93906.00
2023-03-06T20:43:25.857Z,93909.00
2023-03-06T20:47:25.823Z,93911.00
2023-03-06T20:51:25.775Z,93915.00
2023-03-06T20:55:25.725Z,93919.00
2023-03-06T20:59:25.917Z,93917.00
2023-03-06T21:03:25.858Z,93919.00
2023-03-06T21:07:25.852Z,93923.00
2023-03-06T21:11:25.786Z,93921.00
2023-03-06T21:15:25.733Z,93917.00
2023-03-06T21:19:25.747Z,93915.00
2023-03-06T21:23:25.701Z,93907.00
2023-03-06T21:27:25.646Z,93911.00
2023-03-06T21:31:25.665Z,93909.00
2023-03-06T21:35:25.655Z,93909.00
2023-03-06T21:39:25.571Z,93906.00
2023-03-06T21:43:25.524Z,93904.00
2023-03-06T21:47:25.507Z,93900.00
2023-03-06T21:51:25.422Z,93902.00
2023-03-06T21:55:25.417Z,93894.00
2023-03-06T21:59:25.501Z,93890.00
2023-03-06T22:03:25.519Z,93886.00
2023-03-06T22:07:25.511Z,93874.00
2023-03-06T22:11:25.529Z,93872.00
2023-03-06T22:15:25.573Z,93870.00
2023-03-06T22:19:25.617Z,93872.00
2023-03-06T22:23:25.642Z,93874.00
2023-03-06T22:27:25.691Z,93869.00
2023-03-06T22:31:25.768Z,93869.00
2023-03-06T22:35:25.719Z,93865.00
2023-03-06T22:39:25.669Z,93869.00
2023-03-06T22:43:25.635Z,93870.00
2023-03-06T22:47:25.650Z,93867.00
2023-03-06T22:51:25.611Z,93861.00
2023-03-06T22:55:25.596Z,93861.00
2023-03-06T22:59:25.571Z,93857.00
2023-03-06T23:03:25.534Z,93861.00
2023-03-06T23:07:25.512Z,93859.00
2023-03-06T23:11:25.501Z,93859.00
2023-03-06T23:15:25.493Z,93853.00
2023-03-06T23:19:25.494Z,93847.00
2023-03-06T23:23:25.465Z,93849.00
2023-03-06T23:27:25.496Z,93851.00
2023-03-06T23:31:25.474Z,93847.00
2023-03-06T23:35:25.482Z,93855.00
2023-03-06T23:39:25.425Z,93847.00
2023-03-06T23:43:25.404Z,93847.00
2023-03-06T23:47:25.393Z,93845.00
2023-03-06T23:51:25.336Z,93845.00
2023-03-06T23:55:25.334Z,93845.00
2023-03-06T23:59:25.334Z,93845.00
